Parkers Prairie, Minnesota
Current Conditions -  °F | °C
As of 3:53 PM on Friday 24 Oct 2014 (Local Time) from KAXN Reporting Station
Clear Clear  
Wind Chill: 72°   Ceiling: Unl
Heat Index: 72°   Visibility: 10mi
Dew Point: 42°   Wind: 13mph
Humidity: 34%   Direction: 280°W
Pressure: 29.84"   Gusts: NA
Location:  46.15°N, 95.33°W
Report Text: KAXN 242053Z AUTO 28011KT 10SM CLR 22/06 A2984 RMK AO2 SLP105 T02220056 55004
Loading
Personal Weather Stations






























Interactive Weather Map
Tropical Storm Tracking
New forecast layout! Learn more

10-Day Weather Forecast

Advertisements
Track Severe Weather on mobile